Time;durP1;ratioP1;P1;durP2;ratioP2;P2;SDS_P1;SDS_P2;PMS_P1;PMS_P2;Temp;Humidity;BMP_temperature;BMP_pressure;BME280_temperature;BME280_humidity;BME280_pressure;Samples;Min_cycle;Max_cycle;Signal;HPM_P1;HPM_P2
2023/06/23 00:00:43;;;;;;;20.17;15.60;;;;;;;;;;4952318;28;20053;-73
2023/06/23 00:03:09;;;;;;;19.00;15.50;;;;;;;;;;4949124;28;20555;-72
2023/06/23 00:05:37;;;;;;;15.88;13.98;;;;;;;;;;5021288;28;20483;-72
2023/06/23 00:08:05;;;;;;;20.13;14.90;;;;;;;;;;4946633;28;20102;-72
2023/06/23 00:10:31;;;;;;;20.98;16.38;;;;;;;;;;4946664;28;20522;-72
2023/06/23 00:12:57;;;;;;;18.77;15.73;;;;;;;;;;4946148;28;20048;-72
2023/06/23 00:15:25;;;;;;;18.98;14.80;;;;;;;;;;4938076;28;20063;-72
2023/06/23 00:17:51;;;;;;;20.63;15.90;;;;;;;;;;4942537;28;20396;-73
2023/06/23 00:20:19;;;;;;;17.88;15.52;;;;;;;;;;4936877;28;20040;-73
2023/06/23 00:22:45;;;;;;;16.33;14.57;;;;;;;;;;4943952;28;20130;-72
2023/06/23 00:25:12;;;;;;;16.83;14.00;;;;;;;;;;4961648;28;20122;-72
2023/06/23 00:27:41;;;;;;;14.68;12.45;;;;;;;;;;4959459;28;20035;-72
2023/06/23 00:30:08;;;;;;;14.85;13.13;;;;;;;;;;4953932;28;20127;-72
2023/06/23 00:32:34;;;;;;;17.55;15.45;;;;;;;;;;4958217;28;20052;-72
2023/06/23 00:35:00;;;;;;;18.13;14.85;;;;;;;;;;4967306;28;20046;-72
2023/06/23 00:37:32;;;;;;;16.02;12.48;;;;;;;;;;5024466;28;20051;-72
2023/06/23 00:39:59;;;;;;;16.95;12.35;;;;;;;;;;5000709;28;20510;-72
2023/06/23 00:42:25;;;;;;;15.85;12.73;;;;;;;;;;4945450;28;20052;-72
2023/06/23 00:44:51;;;;;;;16.70;12.75;;;;;;;;;;4950031;28;20499;-73
2023/06/23 00:47:18;;;;;;;14.30;12.77;;;;;;;;;;4938235;28;20134;-72
2023/06/23 00:49:45;;;;;;;16.77;13.43;;;;;;;;;;4951531;28;20039;-73
2023/06/23 00:52:11;;;;;;;16.60;12.73;;;;;;;;;;4951335;28;20491;-72
2023/06/23 00:54:37;;;;;;;13.32;11.75;;;;;;;;;;4945678;28;20133;-72
2023/06/23 00:57:04;;;;;;;14.77;13.15;;;;;;;;;;4951885;28;20061;-73
2023/06/23 00:59:30;;;;;;;17.17;12.60;;;;;;;;;;4937716;28;20522;-72
2023/06/23 01:02:00;;;;;;;14.43;12.30;;;;;;;;;;4939460;28;20047;-72
2023/06/23 01:04:32;;;;;;;14.93;13.02;;;;;;;;;;5005448;28;20403;-72
2023/06/23 01:07:16;;;;;;;15.85;14.05;;;;;;;;;;4950257;28;20051;-73
2023/06/23 01:10:18;;;;;;;18.63;14.82;;;;;;;;;;4945680;28;20044;-73
2023/06/23 01:12:59;;;;;;;16.48;14.13;;;;;;;;;;4940765;29;20066;-72
2023/06/23 01:15:25;;;;;;;15.75;13.85;;;;;;;;;;4992220;28;20466;-72
2023/06/23 01:17:51;;;;;;;19.27;14.38;;;;;;;;;;4961828;28;20134;-72
2023/06/23 01:20:21;;;;;;;16.08;13.00;;;;;;;;;;5008460;28;20070;-72
2023/06/23 01:22:50;;;;;;;16.35;12.93;;;;;;;;;;4946298;28;20065;-73
2023/06/23 01:25:19;;;;;;;15.90;14.00;;;;;;;;;;4939295;28;20043;-72
2023/06/23 01:27:58;;;;;;;17.55;13.75;;;;;;;;;;4957351;28;20537;-73
2023/06/23 01:30:26;;;;;;;15.93;13.32;;;;;;;;;;5017771;28;20145;-72
2023/06/23 01:32:55;;;;;;;15.82;13.23;;;;;;;;;;5015865;28;20093;-72
2023/06/23 01:35:22;;;;;;;14.48;12.98;;;;;;;;;;4994085;28;20050;-72
2023/06/23 01:37:51;;;;;;;18.10;14.98;;;;;;;;;;4969891;28;1079263;-73
2023/06/23 01:40:18;;;;;;;15.00;13.40;;;;;;;;;;4948511;28;20108;-72
2023/06/23 01:42:51;;;;;;;16.85;13.80;;;;;;;;;;4950054;28;20039;-73
2023/06/23 01:45:17;;;;;;;15.52;13.93;;;;;;;;;;4945177;28;20051;-73
2023/06/23 01:47:48;;;;;;;15.18;13.43;;;;;;;;;;4962352;28;20441;-73
2023/06/23 01:50:16;;;;;;;15.48;13.80;;;;;;;;;;5021168;28;20082;-73
2023/06/23 01:52:43;;;;;;;20.55;14.70;;;;;;;;;;4951896;28;20044;-73
2023/06/23 01:55:10;;;;;;;17.58;13.93;;;;;;;;;;4953652;28;20058;-73
2023/06/23 01:57:38;;;;;;;18.02;14.25;;;;;;;;;;4962242;28;20058;-73
2023/06/23 02:00:05;;;;;;;19.20;14.73;;;;;;;;;;5012158;28;20062;-72
2023/06/23 02:02:32;;;;;;;21.77;15.00;;;;;;;;;;5031730;28;20360;-72
2023/06/23 02:04:58;;;;;;;18.83;14.25;;;;;;;;;;4997789;28;20051;-73
2023/06/23 02:07:26;;;;;;;20.25;16.42;;;;;;;;;;5014562;28;20044;-72
2023/06/23 02:09:53;;;;;;;21.60;14.57;;;;;;;;;;4945971;28;20050;-72
2023/06/23 02:12:20;;;;;;;19.50;14.60;;;;;;;;;;4938865;28;20055;-73
2023/06/23 02:14:47;;;;;;;19.25;14.73;;;;;;;;;;4936945;28;20031;-73
2023/06/23 02:17:14;;;;;;;18.13;14.18;;;;;;;;;;4949126;28;20051;-73
2023/06/23 02:19:42;;;;;;;19.17;14.43;;;;;;;;;;5003705;28;20055;-73
2023/06/23 02:22:11;;;;;;;20.42;15.10;;;;;;;;;;4950468;28;20380;-72
2023/06/23 02:24:39;;;;;;;22.90;15.75;;;;;;;;;;4932846;28;20113;-73
2023/06/23 02:27:06;;;;;;;24.88;18.40;;;;;;;;;;4950440;28;20501;-73
2023/06/23 02:29:34;;;;;;;25.35;16.88;;;;;;;;;;4948719;28;20093;-73
2023/06/23 02:32:01;;;;;;;23.35;17.67;;;;;;;;;;5012455;28;20093;-72
2023/06/23 02:34:27;;;;;;;22.60;16.20;;;;;;;;;;5036025;28;20051;-73
2023/06/23 02:36:55;;;;;;;18.65;13.40;;;;;;;;;;4949367;28;20545;-73
2023/06/23 02:39:22;;;;;;;19.50;14.13;;;;;;;;;;4952669;28;20059;-73
2023/06/23 02:41:50;;;;;;;16.48;12.85;;;;;;;;;;4939691;28;20047;-73
2023/06/23 02:44:18;;;;;;;15.75;12.20;;;;;;;;;;4958286;28;20057;-73
2023/06/23 02:46:44;;;;;;;15.82;11.40;;;;;;;;;;4946543;28;20070;-74
2023/06/23 02:49:17;;;;;;;17.00;12.07;;;;;;;;;;4986752;28;20055;-73
2023/06/23 02:51:44;;;;;;;16.40;12.20;;;;;;;;;;4997319;28;20092;-74
2023/06/23 02:54:12;;;;;;;15.70;10.98;;;;;;;;;;4965375;28;20078;-73
2023/06/23 02:56:43;;;;;;;16.55;11.02;;;;;;;;;;4949635;28;20047;-72
2023/06/23 02:59:12;;;;;;;13.82;10.48;;;;;;;;;;4961232;28;20050;-73
2023/06/23 03:01:40;;;;;;;13.45;10.02;;;;;;;;;;4962278;28;20053;-73
2023/06/23 03:04:06;;;;;;;14.93;10.35;;;;;;;;;;4966779;28;20080;-73
2023/06/23 03:06:36;;;;;;;14.38;10.55;;;;;;;;;;4994558;28;20049;-72
2023/06/23 03:09:02;;;;;;;15.82;11.57;;;;;;;;;;4959594;28;20398;-72
2023/06/23 03:11:30;;;;;;;16.77;11.13;;;;;;;;;;4968885;28;20066;-73
2023/06/23 03:13:56;;;;;;;12.65;10.65;;;;;;;;;;4943030;28;20399;-73
2023/06/23 03:16:43;;;;;;;16.83;11.45;;;;;;;;;;4932166;28;20055;-73
2023/06/23 03:19:28;;;;;;;12.63;10.43;;;;;;;;;;5015541;28;20051;-72
2023/06/23 03:21:57;;;;;;;13.68;10.88;;;;;;;;;;4989054;28;20088;-73
2023/06/23 03:24:25;;;;;;;14.95;10.82;;;;;;;;;;5031785;28;20176;-72
2023/06/23 03:26:52;;;;;;;13.88;11.40;;;;;;;;;;4971072;28;20054;-73
2023/06/23 03:29:19;;;;;;;13.85;10.70;;;;;;;;;;4950014;28;20142;-73
2023/06/23 03:31:46;;;;;;;14.80;10.85;;;;;;;;;;4942421;28;20407;-73
2023/06/23 03:34:15;;;;;;;13.25;10.88;;;;;;;;;;4935621;28;20050;-73
2023/06/23 03:36:42;;;;;;;13.13;10.80;;;;;;;;;;4945512;28;20495;-74
2023/06/23 03:39:16;;;;;;;13.10;10.60;;;;;;;;;;4948999;28;20059;-72
2023/06/23 03:41:42;;;;;;;13.77;11.32;;;;;;;;;;4947932;28;20051;-73
2023/06/23 03:44:23;;;;;;;15.63;10.63;;;;;;;;;;4945089;28;20404;-73
2023/06/23 03:46:54;;;;;;;12.23;9.38;;;;;;;;;;4955949;28;20438;-74
2023/06/23 03:49:22;;;;;;;13.40;10.48;;;;;;;;;;4948995;28;20057;-73
2023/06/23 03:51:50;;;;;;;13.15;10.95;;;;;;;;;;4959311;28;20051;-73
2023/06/23 03:54:17;;;;;;;12.90;9.70;;;;;;;;;;4944421;28;20402;-73
2023/06/23 03:56:44;;;;;;;14.00;10.07;;;;;;;;;;4958337;28;20047;-73
2023/06/23 03:59:10;;;;;;;12.23;9.88;;;;;;;;;;5001158;28;20055;-73
2023/06/23 04:01:37;;;;;;;12.20;9.68;;;;;;;;;;4958708;28;20039;-73
2023/06/23 04:04:04;;;;;;;13.57;9.57;;;;;;;;;;5003306;28;20051;-73
2023/06/23 04:06:31;;;;;;;12.68;9.63;;;;;;;;;;4996050;28;20067;-72
2023/06/23 04:08:58;;;;;;;12.18;9.65;;;;;;;;;;4943755;28;20125;-72
2023/06/23 04:11:24;;;;;;;12.85;9.93;;;;;;;;;;4936244;28;20047;-73
2023/06/23 04:13:51;;;;;;;11.25;9.45;;;;;;;;;;5022596;28;20039;-73
2023/06/23 04:16:17;;;;;;;12.40;9.82;;;;;;;;;;4952992;28;20039;-73
2023/06/23 04:18:44;;;;;;;12.27;9.63;;;;;;;;;;5014668;28;20046;-74
2023/06/23 04:21:11;;;;;;;11.43;8.80;;;;;;;;;;5008073;28;20055;-72
2023/06/23 04:23:38;;;;;;;13.55;8.77;;;;;;;;;;5002168;28;20047;-73
2023/06/23 04:26:05;;;;;;;13.00;9.43;;;;;;;;;;4947583;28;20446;-73
2023/06/23 04:28:33;;;;;;;13.32;10.32;;;;;;;;;;4951406;28;20044;-72
2023/06/23 04:31:01;;;;;;;13.27;10.80;;;;;;;;;;4962917;28;20121;-73
2023/06/23 04:33:27;;;;;;;13.27;10.60;;;;;;;;;;5032449;28;20047;-73
2023/06/23 04:35:55;;;;;;;11.90;10.18;;;;;;;;;;4957149;28;20042;-73
2023/06/23 04:38:24;;;;;;;13.48;10.20;;;;;;;;;;5004776;28;20050;-73
2023/06/23 04:40:55;;;;;;;12.05;9.20;;;;;;;;;;4950223;28;20506;-73
2023/06/23 04:43:37;;;;;;;12.10;10.25;;;;;;;;;;4954648;28;20556;-73
2023/06/23 04:46:08;;;;;;;11.95;9.52;;;;;;;;;;4946491;28;20118;-73
2023/06/23 04:48:39;;;;;;;13.38;9.60;;;;;;;;;;5015272;28;20138;-73
2023/06/23 04:51:07;;;;;;;10.25;9.10;;;;;;;;;;4950205;28;20511;-73
2023/06/23 04:53:37;;;;;;;13.55;9.88;;;;;;;;;;4957033;28;20491;-73
2023/06/23 04:56:06;;;;;;;10.93;9.00;;;;;;;;;;4937876;28;20067;-73
2023/06/23 04:58:39;;;;;;;10.40;8.30;;;;;;;;;;4951808;28;20050;-73
2023/06/23 05:01:07;;;;;;;9.43;8.45;;;;;;;;;;4951326;28;20057;-73
2023/06/23 05:03:34;;;;;;;12.70;9.30;;;;;;;;;;4971418;28;20403;-73
2023/06/23 05:06:00;;;;;;;11.32;9.35;;;;;;;;;;4959946;28;20084;-73
2023/06/23 05:08:27;;;;;;;11.68;9.10;;;;;;;;;;4969320;28;20035;-73
2023/06/23 05:10:54;;;;;;;11.70;9.27;;;;;;;;;;4960598;28;20059;-73
2023/06/23 05:13:21;;;;;;;10.82;9.60;;;;;;;;;;4969750;28;20123;-73
2023/06/23 05:15:48;;;;;;;11.15;9.10;;;;;;;;;;4984697;28;20674;-74
2023/06/23 05:18:16;;;;;;;11.77;8.95;;;;;;;;;;5031990;28;20047;-71
2023/06/23 05:20:42;;;;;;;10.43;8.60;;;;;;;;;;4988135;28;20038;-73
2023/06/23 05:23:09;;;;;;;11.18;8.82;;;;;;;;;;4959433;28;20047;-72
2023/06/23 05:25:36;;;;;;;10.40;8.73;;;;;;;;;;4950847;28;20055;-71
2023/06/23 05:28:03;;;;;;;11.05;8.98;;;;;;;;;;5037109;28;20047;-72
2023/06/23 05:30:29;;;;;;;9.82;8.50;;;;;;;;;;4939553;28;20043;-72
2023/06/23 05:32:56;;;;;;;14.07;8.98;;;;;;;;;;4946793;28;20047;-71
2023/06/23 05:35:23;;;;;;;10.95;9.35;;;;;;;;;;4949837;28;20055;-72
2023/06/23 05:37:50;;;;;;;13.27;10.18;;;;;;;;;;5022970;28;20114;-72
2023/06/23 05:40:17;;;;;;;11.90;9.85;;;;;;;;;;5013660;28;20066;-73
2023/06/23 05:42:47;;;;;;;13.75;9.68;;;;;;;;;;5038943;28;20123;-72
2023/06/23 05:45:13;;;;;;;12.70;9.55;;;;;;;;;;4949742;28;20044;-71
2023/06/23 05:47:45;;;;;;;11.07;8.60;;;;;;;;;;4951875;28;20391;-72
2023/06/23 05:50:32;;;;;;;9.47;7.30;;;;;;;;;;4990418;28;20499;-72
2023/06/23 05:53:03;;;;;;;9.77;7.07;;;;;;;;;;5029757;28;20054;-71
2023/06/23 05:55:31;;;;;;;10.77;7.50;;;;;;;;;;4960914;28;20407;-71
2023/06/23 05:58:00;;;;;;;9.48;7.28;;;;;;;;;;5029729;28;20051;-71
2023/06/23 06:00:30;;;;;;;10.98;7.40;;;;;;;;;;4945091;28;20070;-71
2023/06/23 06:02:57;;;;;;;8.25;7.30;;;;;;;;;;4947714;28;20121;-70
2023/06/23 06:05:23;;;;;;;8.55;6.57;;;;;;;;;;4942025;28;20044;-71
2023/06/23 06:07:50;;;;;;;10.18;7.28;;;;;;;;;;5002094;28;20058;-72
2023/06/23 06:10:17;;;;;;;8.68;6.40;;;;;;;;;;4955909;28;20052;-71
2023/06/23 06:12:45;;;;;;;10.23;6.82;;;;;;;;;;4949623;28;20043;-72
2023/06/23 06:15:13;;;;;;;9.80;7.03;;;;;;;;;;4961635;28;20051;-71
2023/06/23 06:17:40;;;;;;;9.07;6.80;;;;;;;;;;4943155;28;20065;-72
2023/06/23 06:20:07;;;;;;;8.93;6.70;;;;;;;;;;4953141;28;20048;-71
2023/06/23 06:22:35;;;;;;;9.68;7.05;;;;;;;;;;5005469;28;20051;-72
2023/06/23 06:25:03;;;;;;;7.35;6.10;;;;;;;;;;5016076;28;20043;-72
2023/06/23 06:27:30;;;;;;;9.63;6.60;;;;;;;;;;5013804;28;20043;-72
2023/06/23 06:29:56;;;;;;;10.25;6.60;;;;;;;;;;4949515;28;20050;-72
2023/06/23 06:32:23;;;;;;;10.13;6.45;;;;;;;;;;4948048;28;20058;-72
2023/06/23 06:34:50;;;;;;;9.75;6.80;;;;;;;;;;4950544;28;20043;-73
2023/06/23 06:37:17;;;;;;;8.23;6.10;;;;;;;;;;4949589;28;20066;-72
2023/06/23 06:39:44;;;;;;;10.07;6.60;;;;;;;;;;4940437;28;20109;-74
2023/06/23 06:42:10;;;;;;;7.55;6.28;;;;;;;;;;4953667;28;20047;-72
2023/06/23 06:44:36;;;;;;;9.30;6.35;;;;;;;;;;4948465;28;20061;-72
2023/06/23 06:47:04;;;;;;;6.80;5.75;;;;;;;;;;4955971;28;20112;-72
2023/06/23 06:49:31;;;;;;;9.30;6.00;;;;;;;;;;4950862;28;20088;-72
2023/06/23 06:51:59;;;;;;;6.88;5.60;;;;;;;;;;4941097;28;20043;-72
2023/06/23 06:54:26;;;;;;;6.82;5.75;;;;;;;;;;5006471;28;20059;-72
2023/06/23 06:56:53;;;;;;;8.73;6.03;;;;;;;;;;4943944;28;20056;-72
2023/06/23 06:59:19;;;;;;;7.57;5.68;;;;;;;;;;5001549;28;20387;-72
2023/06/23 07:01:45;;;;;;;7.88;5.80;;;;;;;;;;4972888;28;20077;-72
2023/06/23 07:04:12;;;;;;;6.97;5.97;;;;;;;;;;4947912;28;20495;-72
2023/06/23 07:06:40;;;;;;;7.22;5.60;;;;;;;;;;4942776;28;20047;-72
2023/06/23 07:09:06;;;;;;;9.30;6.00;;;;;;;;;;4947836;28;20086;-72
2023/06/23 07:11:32;;;;;;;7.05;6.30;;;;;;;;;;4940879;29;20056;-72
2023/06/23 07:13:58;;;;;;;8.35;6.03;;;;;;;;;;4949139;28;20039;-72
2023/06/23 07:16:30;;;;;;;7.97;5.82;;;;;;;;;;4950665;28;20134;-71
2023/06/23 07:18:56;;;;;;;7.80;6.10;;;;;;;;;;4949774;28;20402;-72
2023/06/23 07:21:22;;;;;;;7.88;6.40;;;;;;;;;;4949760;29;20084;-72
2023/06/23 07:23:48;;;;;;;7.93;6.13;;;;;;;;;;4948687;28;20051;-73
2023/06/23 07:26:14;;;;;;;7.43;6.32;;;;;;;;;;4954684;28;20127;-72
2023/06/23 07:28:41;;;;;;;8.52;6.68;;;;;;;;;;4947631;29;20083;-73
2023/06/23 07:31:07;;;;;;;8.18;6.57;;;;;;;;;;4949648;28;20134;-71
2023/06/23 07:33:33;;;;;;;9.02;7.30;;;;;;;;;;4985483;28;20091;-72
2023/06/23 07:35:59;;;;;;;10.40;7.45;;;;;;;;;;5013989;28;20557;-72
2023/06/23 07:38:25;;;;;;;9.70;7.07;;;;;;;;;;4949482;28;20047;-73
2023/06/23 07:40:51;;;;;;;8.88;7.40;;;;;;;;;;4934176;28;20084;-73
2023/06/23 07:43:17;;;;;;;8.88;6.97;;;;;;;;;;4947469;28;20061;-72
2023/06/23 07:45:43;;;;;;;8.45;6.38;;;;;;;;;;4930849;28;20079;-72
2023/06/23 07:48:09;;;;;;;9.23;7.45;;;;;;;;;;4941392;29;20056;-72
2023/06/23 07:50:35;;;;;;;11.23;7.78;;;;;;;;;;4949801;28;20043;-72
2023/06/23 07:53:01;;;;;;;8.65;7.15;;;;;;;;;;4964273;28;20042;-71
2023/06/23 07:55:27;;;;;;;7.82;7.00;;;;;;;;;;4950890;28;20047;-71
2023/06/23 07:57:53;;;;;;;9.65;8.00;;;;;;;;;;4969296;28;20499;-72
2023/06/23 08:00:19;;;;;;;8.40;7.50;;;;;;;;;;4980428;28;20040;-72
2023/06/23 08:02:45;;;;;;;9.18;7.28;;;;;;;;;;4945771;28;20142;-72
2023/06/23 08:05:11;;;;;;;12.15;7.65;;;;;;;;;;4943351;28;20039;-72
2023/06/23 08:07:37;;;;;;;9.05;7.07;;;;;;;;;;5001927;28;20055;-72
2023/06/23 08:10:04;;;;;;;10.05;8.10;;;;;;;;;;4944286;28;20547;-72
2023/06/23 08:12:30;;;;;;;9.90;7.55;;;;;;;;;;5017175;28;20506;-72
2023/06/23 08:14:56;;;;;;;9.70;7.78;;;;;;;;;;4953317;28;20048;-72
2023/06/23 08:17:22;;;;;;;9.43;8.00;;;;;;;;;;4951420;28;20051;-72
2023/06/23 08:19:48;;;;;;;12.07;7.95;;;;;;;;;;4952176;28;20058;-72
2023/06/23 08:22:14;;;;;;;9.20;6.97;;;;;;;;;;4948861;28;20065;-72
2023/06/23 08:24:40;;;;;;;10.10;7.57;;;;;;;;;;4951348;28;20098;-72
2023/06/23 08:27:06;;;;;;;10.43;7.70;;;;;;;;;;4951571;28;20043;-71
2023/06/23 08:29:32;;;;;;;8.77;7.00;;;;;;;;;;4952393;28;20049;-71
2023/06/23 08:31:58;;;;;;;10.43;8.02;;;;;;;;;;4952114;28;20127;-72
2023/06/23 08:34:24;;;;;;;7.88;6.75;;;;;;;;;;4943633;28;20055;-72
2023/06/23 08:36:50;;;;;;;8.40;7.05;;;;;;;;;;4951904;28;20043;-72
2023/06/23 08:39:16;;;;;;;8.50;7.55;;;;;;;;;;4952561;28;20483;-71
2023/06/23 08:41:43;;;;;;;10.93;7.38;;;;;;;;;;4993489;28;20062;-72
2023/06/23 08:44:11;;;;;;;8.77;7.32;;;;;;;;;;4951969;28;20101;-71
2023/06/23 08:46:39;;;;;;;9.00;7.00;;;;;;;;;;4951785;28;20055;-72
2023/06/23 08:49:06;;;;;;;9.57;7.25;;;;;;;;;;4957129;28;20079;-72
2023/06/23 08:51:34;;;;;;;11.15;8.15;;;;;;;;;;4995632;28;20055;-71
2023/06/23 08:54:00;;;;;;;7.90;6.70;;;;;;;;;;4947908;28;20374;-72
2023/06/23 08:56:26;;;;;;;8.90;7.10;;;;;;;;;;4944176;28;20047;-71
2023/06/23 08:58:52;;;;;;;9.82;6.63;;;;;;;;;;4942920;28;20040;-71
2023/06/23 09:01:18;;;;;;;7.93;6.93;;;;;;;;;;4934090;29;20086;-71
2023/06/23 09:03:44;;;;;;;9.63;7.30;;;;;;;;;;4988013;28;20533;-71
2023/06/23 09:06:11;;;;;;;7.65;6.10;;;;;;;;;;4950056;28;20154;-71
2023/06/23 09:08:37;;;;;;;8.57;7.10;;;;;;;;;;4944244;28;20576;-71
2023/06/23 09:11:03;;;;;;;9.88;7.15;;;;;;;;;;4952788;28;20499;-71
2023/06/23 09:13:34;;;;;;;9.70;7.03;;;;;;;;;;4982440;28;20049;-71
2023/06/23 09:16:01;;;;;;;9.50;6.80;;;;;;;;;;4968639;28;20096;-71
2023/06/23 09:18:27;;;;;;;9.13;6.82;;;;;;;;;;4985766;28;20052;-71
2023/06/23 09:20:53;;;;;;;8.77;6.60;;;;;;;;;;4947212;28;20040;-71
2023/06/23 09:23:21;;;;;;;8.15;6.63;;;;;;;;;;5005504;28;20062;-72
2023/06/23 09:25:48;;;;;;;10.60;7.20;;;;;;;;;;4934935;28;20050;-71
2023/06/23 09:28:20;;;;;;;9.73;6.47;;;;;;;;;;4945738;28;20392;-71
2023/06/23 09:30:46;;;;;;;9.93;6.00;;;;;;;;;;4952621;29;20066;-72
2023/06/23 09:33:12;;;;;;;9.07;6.88;;;;;;;;;;4980853;28;20395;-71
2023/06/23 09:35:45;;;;;;;8.57;6.30;;;;;;;;;;4934576;28;20055;-71
2023/06/23 09:38:11;;;;;;;8.60;7.40;;;;;;;;;;4937390;28;20054;-71
2023/06/23 09:40:38;;;;;;;9.10;6.55;;;;;;;;;;4942164;28;20066;-71
2023/06/23 09:43:04;;;;;;;8.07;6.43;;;;;;;;;;4943395;28;20063;-71
2023/06/23 09:45:33;;;;;;;9.10;6.15;;;;;;;;;;4951056;28;20043;-71
2023/06/23 09:47:59;;;;;;;7.40;6.38;;;;;;;;;;4993376;28;20090;-71
2023/06/23 09:50:27;;;;;;;7.60;6.20;;;;;;;;;;4940553;28;20054;-71
2023/06/23 09:53:04;;;;;;;8.80;6.32;;;;;;;;;;4982337;28;20062;-71
2023/06/23 09:55:31;;;;;;;7.30;5.50;;;;;;;;;;4941832;28;20040;-71
2023/06/23 09:57:58;;;;;;;7.57;5.75;;;;;;;;;;5023012;28;20043;-71
2023/06/23 10:00:31;;;;;;;8.43;6.25;;;;;;;;;;4950278;28;20048;-71
2023/06/23 10:03:00;;;;;;;8.32;5.47;;;;;;;;;;5001452;28;20054;-71
2023/06/23 10:05:26;;;;;;;6.30;5.70;;;;;;;;;;4945460;28;20040;-71
2023/06/23 10:08:06;;;;;;;7.78;5.85;;;;;;;;;;4951892;28;20074;-71
2023/06/23 10:10:33;;;;;;;8.88;5.82;;;;;;;;;;4950304;28;20390;-71
2023/06/23 10:12:59;;;;;;;7.95;5.72;;;;;;;;;;4950866;28;20078;-71
2023/06/23 10:15:25;;;;;;;7.85;5.45;;;;;;;;;;4936779;28;20535;-71
2023/06/23 10:17:51;;;;;;;7.20;5.70;;;;;;;;;;4998148;28;20048;-71
2023/06/23 10:20:17;;;;;;;6.68;4.95;;;;;;;;;;4935471;28;20048;-71
2023/06/23 10:22:45;;;;;;;9.30;5.38;;;;;;;;;;5000670;28;20125;-71
2023/06/23 10:25:11;;;;;;;7.82;5.25;;;;;;;;;;4973160;28;20485;-71
2023/06/23 10:27:38;;;;;;;6.65;5.32;;;;;;;;;;4954295;28;20090;-71
2023/06/23 10:30:04;;;;;;;7.72;5.68;;;;;;;;;;4939552;28;20066;-71
2023/06/23 10:32:31;;;;;;;7.97;5.68;;;;;;;;;;4950260;28;20047;-71
2023/06/23 10:34:59;;;;;;;6.55;5.00;;;;;;;;;;4977972;28;20569;-71
2023/06/23 10:37:26;;;;;;;5.50;4.82;;;;;;;;;;4974997;28;20119;-71
2023/06/23 10:40:03;;;;;;;6.93;5.10;;;;;;;;;;4945885;28;20040;-71
2023/06/23 10:42:29;;;;;;;5.97;5.30;;;;;;;;;;4986040;28;20062;-71
2023/06/23 10:44:56;;;;;;;6.15;5.05;;;;;;;;;;4957835;28;20491;-71
2023/06/23 10:47:22;;;;;;;5.95;5.35;;;;;;;;;;5051984;28;20073;-71
2023/06/23 10:49:49;;;;;;;7.03;4.75;;;;;;;;;;5016710;28;20153;-72
2023/06/23 10:52:15;;;;;;;6.30;5.32;;;;;;;;;;4948427;28;20557;-72
2023/06/23 10:54:43;;;;;;;6.38;5.13;;;;;;;;;;4943075;28;20051;-73
2023/06/23 10:57:15;;;;;;;8.90;5.25;;;;;;;;;;4987564;28;20052;-71
2023/06/23 11:00:00;;;;;;;7.27;5.03;;;;;;;;;;4932795;28;20072;-72
2023/06/23 11:02:26;;;;;;;5.90;4.93;;;;;;;;;;4935782;28;20046;-72
2023/06/23 11:05:04;;;;;;;5.90;5.10;;;;;;;;;;4932433;28;20495;-72
2023/06/23 11:07:31;;;;;;;7.10;5.28;;;;;;;;;;4949133;28;20051;-72
2023/06/23 11:10:02;;;;;;;8.55;5.15;;;;;;;;;;4968637;28;20043;-73
2023/06/23 11:12:31;;;;;;;9.48;5.28;;;;;;;;;;5015612;28;20087;-72
2023/06/23 11:15:16;;;;;;;6.38;4.85;;;;;;;;;;5033530;28;20082;-73
2023/06/23 11:18:00;;;;;;;5.32;4.80;;;;;;;;;;4944347;28;20495;-71
2023/06/23 11:20:27;;;;;;;6.65;5.05;;;;;;;;;;4941403;28;20043;-71
2023/06/23 11:22:54;;;;;;;8.25;4.88;;;;;;;;;;5002501;28;20514;-71
2023/06/23 11:25:24;;;;;;;7.07;4.97;;;;;;;;;;4947900;28;20129;-71
2023/06/23 11:28:09;;;;;;;7.18;4.63;;;;;;;;;;4944840;28;20043;-71
2023/06/23 11:30:51;;;;;;;7.15;5.30;;;;;;;;;;5020607;28;20395;-71
2023/06/23 11:33:27;;;;;;;6.60;4.65;;;;;;;;;;4951592;28;20105;-71
2023/06/23 11:35:53;;;;;;;5.38;4.68;;;;;;;;;;4936316;28;20039;-71
2023/06/23 11:38:20;;;;;;;7.22;4.68;;;;;;;;;;4940360;28;20067;-71
2023/06/23 11:40:48;;;;;;;6.78;4.05;;;;;;;;;;5003981;28;20379;-72
2023/06/23 11:43:18;;;;;;;5.00;4.25;;;;;;;;;;4952284;28;20066;-71
2023/06/23 11:45:57;;;;;;;6.38;4.70;;;;;;;;;;4978628;28;20043;-72
2023/06/23 11:48:29;;;;;;;7.20;4.68;;;;;;;;;;4945248;28;20055;-72
2023/06/23 11:50:59;;;;;;;6.72;4.70;;;;;;;;;;4946653;28;20415;-72
2023/06/23 11:53:26;;;;;;;7.05;4.80;;;;;;;;;;4986351;28;20101;-71
2023/06/23 11:55:52;;;;;;;4.97;4.47;;;;;;;;;;4953006;28;20070;-71
2023/06/23 11:58:18;;;;;;;6.05;4.65;;;;;;;;;;4952763;28;20051;-72
2023/06/23 12:00:44;;;;;;;6.18;4.22;;;;;;;;;;4945760;28;20483;-72
2023/06/23 12:03:14;;;;;;;7.88;5.03;;;;;;;;;;5019379;28;20047;-72
2023/06/23 12:05:44;;;;;;;5.28;4.50;;;;;;;;;;4988056;28;20050;-72
2023/06/23 12:08:10;;;;;;;7.00;5.28;;;;;;;;;;4995465;28;20059;-72
2023/06/23 12:10:40;;;;;;;6.35;4.60;;;;;;;;;;4957673;28;20047;-71
2023/06/23 12:13:10;;;;;;;6.00;4.95;;;;;;;;;;4949598;28;20047;-72
2023/06/23 12:15:40;;;;;;;7.65;5.00;;;;;;;;;;4947763;28;20513;-72
2023/06/23 12:18:07;;;;;;;5.57;4.70;;;;;;;;;;4953141;28;20077;-73
2023/06/23 12:20:34;;;;;;;4.25;3.85;;;;;;;;;;4952235;28;20078;-71
2023/06/23 12:23:02;;;;;;;4.80;4.30;;;;;;;;;;4980957;28;20144;-71
2023/06/23 12:25:35;;;;;;;6.43;4.50;;;;;;;;;;4999169;28;20039;-71
2023/06/23 12:28:05;;;;;;;6.47;4.57;;;;;;;;;;4953347;28;20051;-73
2023/06/23 12:30:41;;;;;;;6.18;4.28;;;;;;;;;;4950696;28;20169;-72
2023/06/23 12:33:19;;;;;;;5.80;4.70;;;;;;;;;;4953547;28;20058;-72
2023/06/23 12:36:04;;;;;;;7.03;4.00;;;;;;;;;;4951754;28;20146;-72
2023/06/23 12:38:31;;;;;;;6.57;4.63;;;;;;;;;;5004593;28;20059;-71
2023/06/23 12:41:16;;;;;;;6.63;4.30;;;;;;;;;;4952877;28;20052;-72
2023/06/23 12:43:42;;;;;;;5.93;4.30;;;;;;;;;;4940951;28;20047;-71
2023/06/23 12:46:12;;;;;;;4.35;3.78;;;;;;;;;;4950369;28;20040;-71
2023/06/23 12:48:39;;;;;;;4.88;3.80;;;;;;;;;;4933972;28;20098;-71
2023/06/23 12:51:08;;;;;;;8.05;4.00;;;;;;;;;;4939978;28;20523;-71
2023/06/23 12:53:35;;;;;;;5.60;4.05;;;;;;;;;;4950886;28;20044;-71
2023/06/23 12:56:01;;;;;;;4.53;4.10;;;;;;;;;;4943492;28;20047;-71
2023/06/23 12:58:27;;;;;;;4.88;3.72;;;;;;;;;;4937131;28;20613;-71
2023/06/23 13:00:53;;;;;;;4.72;3.40;;;;;;;;;;4996107;28;20066;-71
2023/06/23 13:03:20;;;;;;;5.25;3.88;;;;;;;;;;5013821;28;20078;-71
2023/06/23 13:05:46;;;;;;;6.20;4.15;;;;;;;;;;4943450;28;20044;-75
2023/06/23 13:08:15;;;;;;;5.25;3.90;;;;;;;;;;5012455;28;20054;-73
2023/06/23 13:10:41;;;;;;;7.70;3.90;;;;;;;;;;4943034;28;20130;-74
2023/06/23 13:13:08;;;;;;;4.90;4.07;;;;;;;;;;4959327;28;20051;-73
2023/06/23 13:15:35;;;;;;;4.85;4.05;;;;;;;;;;4952047;28;20050;-72
2023/06/23 13:18:01;;;;;;;4.93;3.88;;;;;;;;;;4943355;28;20093;-73
2023/06/23 13:20:27;;;;;;;5.70;4.47;;;;;;;;;;4949928;28;20048;-72
2023/06/23 13:22:53;;;;;;;6.15;4.13;;;;;;;;;;4951079;28;20043;-73
2023/06/23 13:25:19;;;;;;;4.38;3.97;;;;;;;;;;5023557;28;20055;-73
2023/06/23 13:27:45;;;;;;;6.43;4.03;;;;;;;;;;4950095;28;20067;-73
2023/06/23 13:30:12;;;;;;;5.03;3.85;;;;;;;;;;4951091;28;20556;-72
2023/06/23 13:32:40;;;;;;;5.07;3.95;;;;;;;;;;5004203;28;20126;-73
2023/06/23 13:35:06;;;;;;;4.57;4.07;;;;;;;;;;4960249;28;20058;-72
2023/06/23 13:37:37;;;;;;;4.88;3.88;;;;;;;;;;4965907;28;20057;-73
2023/06/23 13:40:05;;;;;;;4.13;3.70;;;;;;;;;;4996356;28;20562;-73
2023/06/23 13:42:31;;;;;;;6.75;3.72;;;;;;;;;;4950483;28;20063;-72
2023/06/23 13:44:57;;;;;;;5.78;4.07;;;;;;;;;;4952897;28;20063;-73
2023/06/23 13:47:23;;;;;;;6.45;4.30;;;;;;;;;;5004821;28;20178;-72
2023/06/23 13:49:49;;;;;;;5.18;3.70;;;;;;;;;;4934700;28;20044;-72
2023/06/23 13:52:15;;;;;;;6.22;3.90;;;;;;;;;;4948125;28;20043;-71
2023/06/23 13:54:41;;;;;;;4.45;3.90;;;;;;;;;;4994556;28;20410;-71
2023/06/23 13:57:07;;;;;;;4.72;3.60;;;;;;;;;;4996790;28;20051;-70
2023/06/23 13:59:33;;;;;;;4.15;3.47;;;;;;;;;;4951390;28;20051;-71
2023/06/23 14:01:59;;;;;;;6.30;4.10;;;;;;;;;;4949754;28;20490;-72
2023/06/23 14:04:26;;;;;;;6.35;3.63;;;;;;;;;;4950383;28;20193;-72
2023/06/23 14:06:52;;;;;;;3.83;3.45;;;;;;;;;;4976047;28;20130;-72
2023/06/23 14:09:18;;;;;;;4.35;3.63;;;;;;;;;;4969503;28;20097;-71
2023/06/23 14:11:44;;;;;;;4.82;3.50;;;;;;;;;;4937149;28;20484;-72
2023/06/23 14:14:10;;;;;;;5.05;3.63;;;;;;;;;;4936102;28;20137;-71
2023/06/23 14:16:36;;;;;;;4.32;3.45;;;;;;;;;;4932341;29;20040;-70
2023/06/23 14:19:03;;;;;;;5.05;3.90;;;;;;;;;;4938676;29;20050;-70
2023/06/23 14:21:29;;;;;;;4.88;3.80;;;;;;;;;;4957145;28;20043;-71
2023/06/23 14:23:55;;;;;;;5.18;3.58;;;;;;;;;;4940696;28;20047;-71
2023/06/23 14:26:21;;;;;;;4.78;3.67;;;;;;;;;;4950518;28;20085;-71
2023/06/23 14:28:47;;;;;;;8.40;3.40;;;;;;;;;;4941310;28;20047;-71
2023/06/23 14:31:13;;;;;;;5.03;3.15;;;;;;;;;;4946634;28;20052;-71
2023/06/23 14:33:40;;;;;;;4.72;3.47;;;;;;;;;;4937484;28;20100;-71
2023/06/23 14:36:06;;;;;;;6.57;3.88;;;;;;;;;;4949037;28;20051;-71
2023/06/23 14:38:32;;;;;;;4.93;3.60;;;;;;;;;;4961441;28;20047;-71